createdAt,value
2023-04-06T00:00:29.591Z,37.94
2023-04-06T00:02:57.440Z,38.26
2023-04-06T00:05:25.431Z,38.26
2023-04-06T00:07:55.239Z,38.31
2023-04-06T00:10:22.999Z,38.15
2023-04-06T00:12:50.898Z,38.25
2023-04-06T00:15:18.713Z,38.30
2023-04-06T00:17:46.448Z,38.24
2023-04-06T00:20:14.314Z,38.42
2023-04-06T00:22:42.226Z,38.48
2023-04-06T00:25:11.404Z,38.59
2023-04-06T00:27:39.895Z,38.63
2023-04-06T00:30:08.846Z,38.26
2023-04-06T00:32:37.254Z,38.39
2023-04-06T00:35:06.547Z,38.97
2023-04-06T00:37:34.412Z,38.71
2023-04-06T00:40:02.311Z,38.88
2023-04-06T00:42:30.691Z,38.65
2023-04-06T00:45:01.608Z,38.73
2023-04-06T00:47:29.694Z,38.90
2023-04-06T00:49:58.606Z,38.97
2023-04-06T00:52:26.584Z,38.88
2023-04-06T00:54:55.433Z,38.89
2023-04-06T00:57:24.125Z,39.35
2023-04-06T00:59:57.150Z,39.19
2023-04-06T01:02:26.676Z,39.25
2023-04-06T01:04:55.864Z,39.26
2023-04-06T01:07:32.692Z,39.38
2023-04-06T01:10:09.200Z,39.32
2023-04-06T01:12:39.760Z,39.47
2023-04-06T01:15:14.617Z,39.47
2023-04-06T01:17:44.937Z,39.74
2023-04-06T01:20:16.692Z,39.86
2023-04-06T01:22:44.824Z,39.55
2023-04-06T01:25:14.216Z,39.30
2023-04-06T01:27:49.181Z,39.70
2023-04-06T01:30:23.856Z,39.78
2023-04-06T01:32:55.585Z,39.61
2023-04-06T01:35:37.966Z,39.71
2023-04-06T01:38:18.624Z,39.94
2023-04-06T01:40:48.625Z,40.02
2023-04-06T01:43:19.017Z,39.98
2023-04-06T01:46:00.487Z,39.97
2023-04-06T01:48:33.904Z,39.83
2023-04-06T01:51:07.764Z,39.92
2023-04-06T01:53:42.771Z,40.00
2023-04-06T01:56:11.203Z,40.03
2023-04-06T01:58:44.538Z,40.08
2023-04-06T02:01:14.970Z,40.30
2023-04-06T02:03:53.382Z,40.04
2023-04-06T02:06:21.662Z,40.18
2023-04-06T02:08:50.225Z,40.33
2023-04-06T02:11:18.235Z,40.69
2023-04-06T02:13:49.859Z,40.29
2023-04-06T02:16:18.894Z,40.65
2023-04-06T02:18:47.784Z,40.77
2023-04-06T02:21:18.540Z,40.65
2023-04-06T02:23:48.228Z,40.44
2023-04-06T02:26:16.607Z,40.30
2023-04-06T02:28:44.526Z,40.26
2023-04-06T02:31:12.438Z,40.55
2023-04-06T02:33:40.732Z,40.37
2023-04-06T02:36:09.245Z,40.54
2023-04-06T02:38:37.200Z,40.20
2023-04-06T02:41:05.113Z,40.70
2023-04-06T02:43:34.408Z,40.54
2023-04-06T02:46:07.530Z,40.89
2023-04-06T02:48:39.432Z,40.61
2023-04-06T02:51:07.418Z,40.93
2023-04-06T02:53:36.300Z,40.54
2023-04-06T02:56:04.506Z,40.64
2023-04-06T02:58:44.421Z,40.75
2023-04-06T03:01:12.415Z,40.68
2023-04-06T03:03:42.257Z,41.05
2023-04-06T03:06:16.745Z,40.86
2023-04-06T03:08:44.879Z,40.86
2023-04-06T03:11:12.994Z,40.83
2023-04-06T03:13:43.491Z,40.99
2023-04-06T03:16:12.225Z,41.14
2023-04-06T03:18:40.427Z,41.05
2023-04-06T03:21:08.403Z,41.15
2023-04-06T03:23:45.953Z,41.20
2023-04-06T03:26:14.055Z,41.41
2023-04-06T03:28:41.800Z,41.21
2023-04-06T03:31:09.811Z,41.28
2023-04-06T03:33:52.963Z,41.25
2023-04-06T03:36:27.775Z,41.45
2023-04-06T03:38:58.085Z,41.20
2023-04-06T03:41:26.442Z,41.20
2023-04-06T03:44:09.685Z,41.46
2023-04-06T03:46:38.800Z,41.21
2023-04-06T03:49:07.573Z,41.34
2023-04-06T03:51:36.250Z,41.63
2023-04-06T03:54:05.684Z,41.87
2023-04-06T03:56:33.904Z,41.62
2023-04-06T03:59:02.936Z,41.69
2023-04-06T04:01:31.002Z,41.92
2023-04-06T04:03:58.963Z,42.13
2023-04-06T04:06:27.007Z,42.25
2023-04-06T04:08:54.854Z,42.65
2023-04-06T04:11:22.921Z,42.71
2023-04-06T04:13:56.978Z,42.68
2023-04-06T04:16:25.102Z,42.75
2023-04-06T04:18:53.222Z,42.64
2023-04-06T04:21:21.125Z,42.75
2023-04-06T04:23:49.241Z,42.66
2023-04-06T04:26:17.030Z,42.45
2023-04-06T04:28:47.107Z,42.62
2023-04-06T04:31:19.146Z,42.56
2023-04-06T04:34:10.721Z,42.78
2023-04-06T04:36:59.773Z,42.49
2023-04-06T04:39:59.732Z,42.80
2023-04-06T04:42:29.435Z,42.85
2023-04-06T04:45:00.294Z,42.98
2023-04-06T04:47:37.359Z,43.01
2023-04-06T04:50:07.743Z,42.97
2023-04-06T04:52:39.303Z,42.75
2023-04-06T04:55:16.276Z,42.60
2023-04-06T04:57:47.438Z,42.47
2023-04-06T05:00:17.178Z,42.73
2023-04-06T05:02:47.538Z,42.54
2023-04-06T05:05:20.313Z,42.59
2023-04-06T05:07:48.478Z,42.60
2023-04-06T05:10:26.844Z,42.87
2023-04-06T05:13:01.014Z,42.98
2023-04-06T05:15:29.569Z,42.78
2023-04-06T05:18:07.624Z,43.08
2023-04-06T05:20:37.387Z,42.92
2023-04-06T05:23:05.612Z,43.01
2023-04-06T05:25:33.941Z,42.96
2023-04-06T05:28:15.274Z,42.90
2023-04-06T05:30:44.942Z,43.12
2023-04-06T05:33:13.872Z,43.16
2023-04-06T05:36:02.090Z,42.94
2023-04-06T05:38:30.446Z,42.94
2023-04-06T05:41:03.047Z,43.21
2023-04-06T05:43:33.754Z,43.07
2023-04-06T05:46:02.243Z,43.20
2023-04-06T05:48:34.277Z,43.01
2023-04-06T05:51:07.100Z,43.21
2023-04-06T05:53:47.426Z,43.25
2023-04-06T05:56:15.462Z,43.25
2023-04-06T05:58:43.922Z,43.55
2023-04-06T06:01:14.487Z,43.42
2023-04-06T06:03:47.668Z,43.37
2023-04-06T06:06:16.251Z,43.26
2023-04-06T06:09:04.469Z,43.11
2023-04-06T06:11:40.257Z,43.29
2023-04-06T06:14:08.295Z,43.54
2023-04-06T06:16:40.447Z,43.52
2023-04-06T06:19:09.752Z,43.68
2023-04-06T06:21:38.721Z,43.36
2023-04-06T06:24:10.660Z,43.70
2023-04-06T06:26:40.358Z,43.63
2023-04-06T06:29:10.208Z,43.77
2023-04-06T06:31:40.199Z,43.75
2023-04-06T06:34:08.665Z,44.34
2023-04-06T06:36:38.354Z,44.25
2023-04-06T06:39:09.779Z,44.03
2023-04-06T06:41:42.839Z,44.00
2023-04-06T06:44:11.882Z,44.45
2023-04-06T06:46:39.896Z,44.23
2023-04-06T06:49:07.862Z,44.38
2023-04-06T06:51:38.981Z,44.45
2023-04-06T06:54:07.568Z,43.85
2023-04-06T06:56:38.956Z,43.98
2023-04-06T06:59:08.383Z,44.24
2023-04-06T07:01:38.015Z,43.93
2023-04-06T07:04:06.266Z,44.16
2023-04-06T07:06:36.226Z,43.64
2023-04-06T07:09:07.998Z,43.75
2023-04-06T07:11:35.824Z,43.77
2023-04-06T07:14:04.093Z,43.19
2023-04-06T07:16:32.074Z,43.54
2023-04-06T07:19:00.965Z,43.03
2023-04-06T07:21:32.817Z,43.26
2023-04-06T07:24:00.868Z,43.08
2023-04-06T07:26:31.442Z,43.14
2023-04-06T07:28:59.459Z,43.00
2023-04-06T07:31:27.644Z,42.80
2023-04-06T07:33:58.258Z,42.36
2023-04-06T07:36:26.880Z,42.62
2023-04-06T07:38:54.745Z,42.45
2023-04-06T07:41:24.970Z,42.43
2023-04-06T07:43:53.073Z,42.47
2023-04-06T07:46:21.261Z,42.10
2023-04-06T07:48:50.934Z,42.35
2023-04-06T07:51:19.070Z,41.98
2023-04-06T07:53:48.365Z,42.07
2023-04-06T07:56:16.506Z,41.91
2023-04-06T07:58:48.722Z,41.63
2023-04-06T08:01:16.708Z,41.82
2023-04-06T08:03:44.887Z,41.58
2023-04-06T08:06:13.184Z,41.40
2023-04-06T08:08:41.240Z,41.46
2023-04-06T08:11:09.325Z,41.39
2023-04-06T08:13:37.061Z,41.34
2023-04-06T08:16:07.623Z,41.28
2023-04-06T08:18:35.898Z,41.18
2023-04-06T08:21:03.869Z,41.00
2023-04-06T08:23:32.770Z,41.11
2023-04-06T08:26:00.706Z,40.95
2023-04-06T08:28:30.086Z,40.70
2023-04-06T08:30:58.341Z,40.81
2023-04-06T08:33:26.482Z,40.52
2023-04-06T08:35:54.321Z,40.19
2023-04-06T08:38:22.223Z,40.15
2023-04-06T08:40:52.610Z,40.24
2023-04-06T08:43:24.294Z,40.18
2023-04-06T08:45:52.578Z,39.92
2023-04-06T08:48:21.950Z,39.77
2023-04-06T08:50:50.469Z,39.81
2023-04-06T08:53:19.763Z,39.69
2023-04-06T08:55:49.098Z,39.65
2023-04-06T08:58:27.550Z,39.61
2023-04-06T09:01:09.947Z,38.96
2023-04-06T09:03:41.273Z,39.42
2023-04-06T09:06:11.325Z,39.16
2023-04-06T09:08:41.817Z,39.09
2023-04-06T09:11:10.166Z,38.92
2023-04-06T09:13:51.230Z,38.69
2023-04-06T09:16:20.073Z,38.68
2023-04-06T09:18:49.085Z,38.39
2023-04-06T09:21:23.579Z,38.24
2023-04-06T09:24:05.620Z,37.98
2023-04-06T09:26:34.862Z,38.17
2023-04-06T09:29:04.391Z,37.98
2023-04-06T09:31:35.884Z,38.01
2023-04-06T09:34:05.507Z,38.16
2023-04-06T09:36:39.516Z,37.84
2023-04-06T09:39:09.330Z,37.80
2023-04-06T09:41:37.644Z,37.32
2023-04-06T09:44:11.127Z,37.37
2023-04-06T09:46:58.784Z,37.38
2023-04-06T09:49:34.282Z,37.08
2023-04-06T09:52:05.453Z,36.95
2023-04-06T09:54:34.032Z,36.91
2023-04-06T09:57:19.398Z,36.55
2023-04-06T10:00:05.122Z,36.35
2023-04-06T10:03:12.529Z,36.18
2023-04-06T10:06:02.036Z,36.24
2023-04-06T10:08:33.066Z,36.32
2023-04-06T10:11:01.975Z,36.22
2023-04-06T10:13:31.294Z,35.87
2023-04-06T10:16:02.447Z,35.41
2023-04-06T10:18:31.409Z,35.21
2023-04-06T10:21:27.895Z,35.06
2023-04-06T10:24:01.784Z,35.02
2023-04-06T10:26:31.135Z,34.70
2023-04-06T10:29:06.672Z,34.68
2023-04-06T10:31:41.722Z,34.48
2023-04-06T10:34:09.776Z,34.70
2023-04-06T10:36:38.837Z,34.62
2023-04-06T10:39:07.630Z,34.54
2023-04-06T10:41:46.204Z,34.03
2023-04-06T10:44:27.216Z,33.56
2023-04-06T10:47:03.956Z,33.66
2023-04-06T10:49:32.081Z,33.25
2023-04-06T10:52:00.226Z,33.25
2023-04-06T10:54:31.191Z,32.92
2023-04-06T10:56:59.263Z,33.40
2023-04-06T10:59:30.638Z,32.81
2023-04-06T11:02:00.944Z,32.73
2023-04-06T11:04:28.731Z,32.73
2023-04-06T11:06:56.669Z,32.49
2023-04-06T11:09:32.564Z,32.33
2023-04-06T11:12:01.859Z,32.26
2023-04-06T11:14:29.892Z,32.29
2023-04-06T11:16:57.947Z,31.98
2023-04-06T11:19:26.162Z,31.81
2023-04-06T11:21:54.182Z,31.66
2023-04-06T11:24:25.013Z,31.38
2023-04-06T11:26:58.255Z,31.20
2023-04-06T11:29:31.874Z,31.11
2023-04-06T11:32:05.681Z,31.35
2023-04-06T11:34:39.566Z,30.90
2023-04-06T11:37:12.779Z,30.68
2023-04-06T11:39:53.410Z,30.43
2023-04-06T11:42:29.015Z,30.34
2023-04-06T11:44:59.882Z,30.41
2023-04-06T11:47:35.944Z,30.21
2023-04-06T11:50:13.620Z,30.11
2023-04-06T11:52:44.288Z,30.13
2023-04-06T11:55:18.549Z,29.99
2023-04-06T11:57:48.743Z,29.77
2023-04-06T12:00:18.265Z,29.88
2023-04-06T12:02:50.340Z,29.52
2023-04-06T12:05:29.639Z,29.74
2023-04-06T12:08:01.093Z,29.29
2023-04-06T12:10:31.445Z,29.51
2023-04-06T12:13:03.285Z,29.04
2023-04-06T12:15:33.710Z,29.15
2023-04-06T12:18:01.700Z,28.78
2023-04-06T12:20:30.898Z,28.71
2023-04-06T12:22:58.872Z,28.52
2023-04-06T12:25:27.057Z,28.47
2023-04-06T12:27:55.517Z,28.24
2023-04-06T12:30:25.097Z,28.24
2023-04-06T12:32:53.013Z,27.85
2023-04-06T12:35:24.020Z,27.72
2023-04-06T12:37:51.957Z,27.52
2023-04-06T12:40:20.016Z,27.34
2023-04-06T12:42:48.097Z,27.28
2023-04-06T12:45:16.053Z,26.98
2023-04-06T12:47:44.143Z,27.16
2023-04-06T12:50:12.194Z,26.87
2023-04-06T12:52:40.356Z,26.74
2023-04-06T12:55:09.701Z,26.59
2023-04-06T12:57:38.203Z,26.57
2023-04-06T13:00:10.055Z,26.14
2023-04-06T13:02:40.111Z,26.16
2023-04-06T13:05:08.538Z,25.83
2023-04-06T13:07:37.398Z,26.02
2023-04-06T13:10:07.611Z,25.94
2023-04-06T13:12:37.435Z,26.04
2023-04-06T13:15:06.741Z,25.59
2023-04-06T13:17:34.615Z,25.74
2023-04-06T13:20:05.072Z,25.90
2023-04-06T13:22:39.813Z,25.84
2023-04-06T13:25:08.262Z,25.79
2023-04-06T13:27:36.754Z,25.30
2023-04-06T13:30:06.734Z,25.36
2023-04-06T13:32:36.243Z,25.26
2023-04-06T13:35:04.827Z,25.21
2023-04-06T13:37:33.325Z,25.09
2023-04-06T13:40:02.509Z,25.16
2023-04-06T13:42:30.564Z,25.05
2023-04-06T13:44:59.113Z,25.11
2023-04-06T13:47:27.586Z,25.07
2023-04-06T13:49:57.058Z,25.09
2023-04-06T13:52:25.124Z,24.92
2023-04-06T13:54:53.531Z,24.96
2023-04-06T13:57:21.461Z,25.24
2023-04-06T13:59:51.536Z,25.35
2023-04-06T14:02:21.577Z,25.06
2023-04-06T14:04:50.001Z,25.20
2023-04-06T14:07:17.988Z,25.29
2023-04-06T14:09:45.898Z,25.17
2023-04-06T14:12:14.077Z,25.05
2023-04-06T14:14:42.000Z,24.53
2023-04-06T14:17:10.358Z,24.41
2023-04-06T14:19:39.703Z,24.70
2023-04-06T14:22:09.517Z,24.26
2023-04-06T14:24:39.481Z,24.83
2023-04-06T14:27:09.553Z,24.92
2023-04-06T14:29:38.457Z,24.34
2023-04-06T14:32:08.891Z,24.05
2023-04-06T14:34:41.675Z,23.92
2023-04-06T14:37:09.630Z,23.72
2023-04-06T14:39:37.743Z,23.82
2023-04-06T14:42:07.238Z,23.49
2023-04-06T14:44:37.618Z,23.43
2023-04-06T14:47:06.462Z,23.53
2023-04-06T14:49:34.323Z,23.24
2023-04-06T14:52:02.172Z,23.26
2023-04-06T14:54:30.654Z,23.16
2023-04-06T14:56:58.663Z,22.92
2023-04-06T14:59:26.615Z,23.52
2023-04-06T15:01:54.688Z,23.50
2023-04-06T15:04:41.354Z,23.25
2023-04-06T15:07:29.453Z,23.71
2023-04-06T15:10:17.887Z,23.63
2023-04-06T15:13:06.599Z,23.88
2023-04-06T15:15:55.041Z,23.48
2023-04-06T15:18:43.529Z,23.65
2023-04-06T15:21:33.476Z,23.50
2023-04-06T15:24:21.706Z,23.75
2023-04-06T15:27:09.828Z,23.89
2023-04-06T15:29:59.542Z,23.95
2023-04-06T15:33:04.502Z,23.75
2023-04-06T15:35:52.816Z,24.13
2023-04-06T15:38:40.975Z,24.09
2023-04-06T15:41:29.252Z,24.24
2023-04-06T15:44:17.642Z,24.39
2023-04-06T15:47:06.038Z,24.38
2023-04-06T15:49:54.070Z,24.74
2023-04-06T15:52:42.259Z,24.79
2023-04-06T15:55:30.884Z,24.82
2023-04-06T15:58:19.171Z,24.93
2023-04-06T16:01:16.906Z,24.98
2023-04-06T16:04:09.258Z,24.91
2023-04-06T16:06:57.579Z,25.11
2023-04-06T16:09:46.124Z,25.21
2023-04-06T16:12:34.409Z,25.28
2023-04-06T16:15:22.796Z,25.32
2023-04-06T16:17:52.029Z,25.10
2023-04-06T16:20:20.546Z,25.28
2023-04-06T16:22:49.728Z,25.44
2023-04-06T16:25:17.702Z,25.46
2023-04-06T16:27:46.083Z,25.42
2023-04-06T16:30:14.826Z,25.65
2023-04-06T16:32:43.478Z,25.40
2023-04-06T16:35:13.872Z,25.54
2023-04-06T16:38:03.224Z,25.62
2023-04-06T16:41:04.208Z,25.79
2023-04-06T16:43:52.054Z,26.07
2023-04-06T16:46:41.641Z,26.19
2023-04-06T16:49:09.476Z,26.17
2023-04-06T16:52:01.975Z,26.32
2023-04-06T16:54:50.756Z,26.51
2023-04-06T16:57:38.814Z,26.56
2023-04-06T17:00:26.560Z,26.71
2023-04-06T17:02:56.146Z,26.88
2023-04-06T17:05:45.301Z,26.95
2023-04-06T17:08:13.147Z,26.88
2023-04-06T17:10:58.018Z,26.86
2023-04-06T17:13:28.698Z,26.97
2023-04-06T17:15:57.402Z,27.08
2023-04-06T17:18:30.588Z,27.15
2023-04-06T17:21:07.517Z,27.32
2023-04-06T17:23:36.188Z,27.27
2023-04-06T17:26:07.961Z,27.25
2023-04-06T17:28:36.178Z,27.80
2023-04-06T17:31:10.513Z,27.63
2023-04-06T17:33:40.217Z,27.80
2023-04-06T17:36:12.464Z,27.73
2023-04-06T17:38:44.109Z,27.94
2023-04-06T17:41:13.745Z,28.14
2023-04-06T17:43:42.052Z,28.15
2023-04-06T17:46:10.520Z,28.19
2023-04-06T17:48:38.617Z,28.33
2023-04-06T17:51:06.805Z,28.53
2023-04-06T17:53:34.877Z,28.60
2023-04-06T17:56:04.444Z,28.68
2023-04-06T17:58:32.817Z,28.72
2023-04-06T18:01:08.596Z,28.84
2023-04-06T18:03:36.913Z,29.08
2023-04-06T18:06:16.251Z,28.84
2023-04-06T18:08:44.100Z,29.05
2023-04-06T18:11:19.115Z,29.04
2023-04-06T18:13:47.437Z,29.08
2023-04-06T18:16:19.081Z,29.08
2023-04-06T18:18:47.510Z,29.11
2023-04-06T18:21:15.568Z,29.12
2023-04-06T18:23:43.339Z,29.15
2023-04-06T18:26:18.093Z,29.32
2023-04-06T18:28:47.310Z,29.48
2023-04-06T18:31:15.825Z,29.48
2023-04-06T18:33:44.002Z,29.92
2023-04-06T18:36:11.869Z,30.09
2023-04-06T18:38:46.084Z,30.12
2023-04-06T18:41:14.932Z,30.35
2023-04-06T18:43:42.784Z,30.34
2023-04-06T18:46:15.535Z,30.65
2023-04-06T18:48:43.864Z,30.79
2023-04-06T18:51:11.778Z,30.71
2023-04-06T18:53:40.648Z,30.95
2023-04-06T18:56:19.943Z,30.88
2023-04-06T18:58:49.191Z,31.09
2023-04-06T19:01:32.771Z,31.19
2023-04-06T19:04:01.862Z,31.24
2023-04-06T19:06:29.963Z,31.41
2023-04-06T19:08:58.888Z,31.43
2023-04-06T19:11:27.337Z,31.67
2023-04-06T19:13:55.401Z,31.65
2023-04-06T19:16:25.192Z,31.66
2023-04-06T19:18:53.364Z,31.71
2023-04-06T19:21:26.392Z,32.12
2023-04-06T19:23:55.901Z,32.34
2023-04-06T19:26:27.874Z,32.62
2023-04-06T19:28:56.110Z,32.72
2023-04-06T19:31:24.181Z,33.11
2023-04-06T19:33:52.907Z,33.48
2023-04-06T19:36:21.737Z,33.69
2023-04-06T19:38:49.620Z,33.94
2023-04-06T19:41:17.942Z,34.17
2023-04-06T19:43:46.132Z,34.37
2023-04-06T19:46:15.417Z,34.75
2023-04-06T19:48:43.579Z,34.82
2023-04-06T19:51:11.496Z,34.93
2023-04-06T19:53:39.326Z,35.19
2023-04-06T19:56:07.250Z,35.43
2023-04-06T19:58:35.310Z,35.59
2023-04-06T20:01:04.417Z,35.77
2023-04-06T20:03:33.169Z,35.94
2023-04-06T20:06:03.922Z,35.59
2023-04-06T20:08:32.194Z,35.90
2023-04-06T20:11:07.533Z,36.11
2023-04-06T20:13:37.004Z,36.32
2023-04-06T20:16:05.385Z,36.37
2023-04-06T20:18:33.688Z,36.91
2023-04-06T20:21:01.582Z,36.99
2023-04-06T20:23:29.729Z,37.49
2023-04-06T20:25:57.880Z,37.50
2023-04-06T20:28:25.926Z,37.75
2023-04-06T20:30:54.934Z,37.94
2023-04-06T20:33:24.042Z,38.15
2023-04-06T20:36:01.260Z,38.25
2023-04-06T20:41:02.371Z,38.62
2023-04-06T20:43:31.745Z,38.72
2023-04-06T20:46:02.400Z,39.00
2023-04-06T20:48:33.452Z,39.02
2023-04-06T20:51:04.828Z,39.21
2023-04-06T20:53:32.860Z,39.33
2023-04-06T20:56:02.991Z,39.44
2023-04-06T20:58:31.188Z,39.54
2023-04-06T21:00:59.024Z,39.55
2023-04-06T21:03:27.172Z,39.91
2023-04-06T21:05:57.520Z,39.99
2023-04-06T21:08:25.661Z,40.09
2023-04-06T21:10:54.868Z,40.35
2023-04-06T21:13:22.830Z,40.46
2023-04-06T21:15:51.722Z,40.49
2023-04-06T21:18:21.013Z,40.61
2023-04-06T21:20:49.174Z,40.97
2023-04-06T21:23:17.100Z,40.95
2023-04-06T21:25:45.280Z,41.18
2023-04-06T21:28:13.281Z,41.17
2023-04-06T21:30:42.353Z,41.34
2023-04-06T21:33:11.677Z,41.52
2023-04-06T21:35:41.888Z,41.67
2023-04-06T21:38:10.047Z,41.87
2023-04-06T21:40:38.709Z,41.82
2023-04-06T21:43:06.884Z,41.84
2023-04-06T21:45:35.810Z,42.06
2023-04-06T21:48:04.598Z,42.02
2023-04-06T21:50:32.406Z,42.36
2023-04-06T21:53:00.287Z,42.47
2023-04-06T21:55:28.141Z,42.51
2023-04-06T21:57:56.272Z,42.56
2023-04-06T22:00:24.117Z,42.66
2023-04-06T22:02:52.294Z,42.77
2023-04-06T22:05:20.621Z,42.68
2023-04-06T22:07:48.480Z,42.74
2023-04-06T22:10:16.209Z,42.95
2023-04-06T22:12:44.155Z,42.89
2023-04-06T22:15:13.249Z,43.05
2023-04-06T22:17:41.027Z,43.02
2023-04-06T22:20:09.412Z,43.05
2023-04-06T22:22:37.446Z,43.23
2023-04-06T22:25:06.564Z,43.50
2023-04-06T22:27:34.372Z,43.67
2023-04-06T22:30:03.223Z,43.53
2023-04-06T22:32:31.115Z,43.68
2023-04-06T22:35:18.940Z,43.73
2023-04-06T22:37:46.943Z,43.98
2023-04-06T22:40:14.907Z,43.94
2023-04-06T22:42:42.795Z,43.76
2023-04-06T22:45:11.309Z,43.81
2023-04-06T22:47:41.531Z,43.94
2023-04-06T22:50:10.015Z,43.98
2023-04-06T22:52:38.454Z,44.01
2023-04-06T22:55:06.812Z,44.10
2023-04-06T22:57:34.617Z,44.07
2023-04-06T23:00:07.123Z,43.99
2023-04-06T23:02:35.159Z,43.94
2023-04-06T23:05:03.159Z,44.09
2023-04-06T23:07:32.791Z,44.10
2023-04-06T23:10:01.037Z,44.10
2023-04-06T23:12:29.149Z,44.11
2023-04-06T23:14:56.889Z,44.21
2023-04-06T23:17:25.872Z,44.33
2023-04-06T23:19:54.074Z,44.30
2023-04-06T23:22:22.236Z,44.24
2023-04-06T23:24:50.192Z,44.25
2023-04-06T23:27:18.017Z,44.31
2023-04-06T23:29:46.413Z,44.31
2023-04-06T23:32:14.785Z,44.42
2023-04-06T23:34:42.685Z,44.38
2023-04-06T23:37:11.726Z,44.29
2023-04-06T23:39:39.591Z,44.21
2023-04-06T23:42:07.602Z,44.34
2023-04-06T23:44:35.373Z,44.31
2023-04-06T23:47:03.163Z,44.34
2023-04-06T23:49:31.201Z,44.33
2023-04-06T23:51:59.208Z,44.43
2023-04-06T23:54:27.348Z,44.35
2023-04-06T23:56:55.888Z,44.40
2023-04-06T23:59:24.595Z,44.41
